ASR weather

Kayseri Erkilet Airport
Kayseri, Kayseri Province, Turkey

Public forecast

Using degrees Celsius for public forecast. Weather courtesy of forecast.io.

Current aviation weather report (METAR) for Kayseri Erkilet Airport

Retrieved 2019/12/08 20:20 UTC (30 minutes ago):

LTAU 082020Z 00000KT 6000 SCT012 BKN021 01/M02 Q1017 NOSIG RMK RWY07 00000KT

Aviation forecast (TAF) for Kayseri Erkilet Airport

Retrieved 2019/12/08 18:03 UTC (3 hours ago):

TAF LTAU 081640Z 0818/0918 VRB02KT 8000 SCT010 BKN025 PROB40 TEMPO 0903/0907 3200 BR BKN009